createdAt,value
2022-12-08T00:07:23.654Z,13
2022-12-08T00:36:05.290Z,12
2022-12-08T01:04:50.347Z,11
2022-12-08T01:33:33.115Z,10
2022-12-08T02:02:18.379Z,11
2022-12-08T02:31:03.958Z,9
2022-12-08T02:59:46.596Z,8
2022-12-08T03:28:27.746Z,8
2022-12-08T03:57:14.256Z,9
2022-12-08T04:26:01.669Z,9
2022-12-08T04:54:50.317Z,9
2022-12-08T05:23:36.216Z,8
2022-12-08T05:52:19.019Z,7
2022-12-08T06:21:01.405Z,7
2022-12-08T06:49:40.855Z,8
2022-12-08T07:18:20.907Z,8
2022-12-08T07:46:59.140Z,8
2022-12-08T08:15:40.954Z,10
2022-12-08T08:44:13.900Z,11
2022-12-08T09:12:46.766Z,12
2022-12-08T09:41:19.073Z,10
2022-12-08T10:10:04.998Z,10
2022-12-08T10:38:30.640Z,12
2022-12-08T11:07:07.706Z,10
2022-12-08T11:35:39.345Z,11
2022-12-08T12:04:14.747Z,8
2022-12-08T12:32:58.051Z,8
2022-12-08T13:01:35.658Z,8
2022-12-08T13:30:06.406Z,7
2022-12-08T13:58:35.521Z,7
2022-12-08T14:27:18.935Z,7
2022-12-08T14:55:47.466Z,6
2022-12-08T15:24:19.829Z,6
2022-12-08T15:52:58.131Z,6
2022-12-08T16:22:17.534Z,7
2022-12-08T16:50:06.364Z,7
2022-12-08T17:18:45.128Z,6
2022-12-08T17:47:22.026Z,6
2022-12-08T18:15:57.840Z,6
2022-12-08T18:44:43.345Z,7
2022-12-08T19:13:20.591Z,7
2022-12-08T19:41:55.227Z,7
2022-12-08T20:10:31.259Z,9
2022-12-08T20:39:14.993Z,9
2022-12-08T21:07:46.269Z,10
2022-12-08T21:36:20.163Z,10
2022-12-08T22:05:03.159Z,13
2022-12-08T22:33:45.317Z,13
2022-12-08T23:02:20.127Z,12
2022-12-08T23:31:08.052Z,12
2022-12-08T23:59:49.163Z,11
